Time;durP1;ratioP1;P1;durP2;ratioP2;P2;SDS_P1;SDS_P2;PMS_P1;PMS_P2;Temp;Humidity;BMP_temperature;BMP_pressure;BME280_temperature;BME280_humidity;BME280_pressure;Samples;Min_cycle;Max_cycle;Signal;HPM_P1;HPM_P2
2023/01/20 00:02:22;;;;;;;47.80;25.10;;;;;;;-0.27;91.82;97884.52;434553;1257;99260;-41
2023/01/20 00:12:30;;;;;;;68.20;29.20;;;;;;;-0.25;91.78;97900.96;434643;1257;107518;-39
2023/01/20 00:22:41;;;;;;;72.70;30.30;;;;;;;-0.31;92.01;97912.30;434631;1253;99214;-40
2023/01/20 00:32:49;;;;;;;74.40;34.90;;;;;;;-0.43;91.83;97931.41;434614;1257;111240;-39
2023/01/20 00:42:56;;;;;;;76.60;35.50;;;;;;;-0.59;91.66;97941.55;434585;1253;108459;-39
2023/01/20 00:53:04;;;;;;;55.00;28.60;;;;;;;-0.68;91.62;97942.73;434699;1253;99247;-40
2023/01/20 01:03:11;;;;;;;57.60;28.00;;;;;;;-0.67;91.70;97947.70;434680;1253;108852;-39
2023/01/20 01:13:18;;;;;;;58.10;30.00;;;;;;;-0.70;91.51;97951.10;434812;1253;99350;-39
2023/01/20 01:23:25;;;;;;;73.80;35.00;;;;;;;-0.71;91.44;97939.64;434739;1257;111363;-40
2023/01/20 01:33:34;;;;;;;81.10;38.60;;;;;;;-0.88;91.60;97946.86;434876;1253;107570;-40
2023/01/20 01:43:56;;;;;;;70.60;29.80;;;;;;;-1.21;91.32;97971.77;434916;1253;99129;-40
2023/01/20 01:54:06;;;;;;;68.80;32.00;;;;;;;-1.52;91.19;97971.80;434909;1253;108448;-40
2023/01/20 02:04:16;;;;;;;62.90;30.10;;;;;;;-1.73;91.21;97994.50;434785;1253;99433;-38
2023/01/20 02:14:27;;;;;;;64.70;32.40;;;;;;;-1.83;90.99;98001.54;435014;1258;111098;-39
2023/01/20 02:24:54;;;;;;;59.40;32.00;;;;;;;-1.74;91.42;98001.15;434923;1259;107882;-40
2023/01/20 02:35:01;;;;;;;87.20;35.90;;;;;;;-1.84;91.28;98002.77;434996;1257;98490;-40
2023/01/20 02:45:13;;;;;;;73.80;35.10;;;;;;;-2.07;91.03;98018.55;434873;1259;112061;-39
2023/01/20 02:55:18;;;;;;;69.50;32.80;;;;;;;-2.35;90.82;98013.99;435531;1252;418775;-39
2023/01/20 03:05:29;;;;;;;70.40;33.30;;;;;;;-2.60;90.69;98025.60;435031;1253;99364;-39
2023/01/20 03:15:43;;;;;;;79.10;36.80;;;;;;;-2.76;90.82;98015.05;435063;1259;107382;-39
2023/01/20 03:25:51;;;;;;;71.10;35.70;;;;;;;-2.74;91.16;98032.39;435086;1253;99243;-39
2023/01/20 03:35:59;;;;;;;56.80;32.10;;;;;;;-2.62;91.07;98056.04;435069;1253;111678;-40
2023/01/20 03:46:05;;;;;;;77.50;33.10;;;;;;;-2.65;90.90;98064.89;435058;1257;107630;-38
2023/01/20 03:56:11;;;;;;;86.60;37.30;;;;;;;-2.65;90.99;98057.33;435286;1256;118571;-39
2023/01/20 04:06:21;;;;;;;77.30;33.50;;;;;;;-2.84;90.83;98057.95;435093;1254;107997;-39
2023/01/20 04:16:29;;;;;;;66.00;31.70;;;;;;;-3.08;90.78;98077.88;435273;1257;98826;-40
2023/01/20 04:26:36;;;;;;;70.30;31.50;;;;;;;-3.27;90.90;98088.27;435007;1259;110365;-39
2023/01/20 04:36:43;;;;;;;90.70;44.80;;;;;;;-3.44;90.44;98089.30;435070;1257;107336;-39
2023/01/20 04:46:50;;;;;;;84.10;43.90;;;;;;;-3.40;90.79;98082.88;435092;1253;99333;-39
2023/01/20 04:56:57;;;;;;;88.70;41.10;;;;;;;-3.30;90.84;98113.24;435152;1259;108310;-38
2023/01/20 05:07:04;;;;;;;126.50;55.00;;;;;;;-3.32;90.75;98123.05;435050;1257;99225;-40
2023/01/20 05:17:11;;;;;;;137.80;55.30;;;;;;;-3.42;90.72;98131.63;435200;1257;111104;-41
2023/01/20 05:27:19;;;;;;;117.00;52.40;;;;;;;-3.56;90.68;98128.21;435066;1252;108321;-39
2023/01/20 05:37:26;;;;;;;119.60;54.00;;;;;;;-3.75;90.55;98135.46;435142;1259;99250;-39
2023/01/20 05:47:33;;;;;;;94.40;42.10;;;;;;;-3.94;90.61;98159.55;434992;1267;112523;-40
2023/01/20 05:57:40;;;;;;;125.10;67.10;;;;;;;-3.88;90.74;98173.11;434993;1257;107664;-39
2023/01/20 06:07:48;;;;;;;115.60;63.10;;;;;;;-3.74;90.80;98176.36;435028;1257;98421;-39
2023/01/20 06:17:56;;;;;;;105.10;59.20;;;;;;;-3.60;90.99;98190.63;434957;1256;109589;-40
2023/01/20 06:38:10;;;;;;;180.80;75.90;;;;;;;-3.78;90.88;98215.14;435286;1267;111573;-40
2023/01/20 06:48:17;;;;;;;186.90;80.70;;;;;;;-3.94;90.48;98222.89;435099;1256;109242;-40
2023/01/20 06:58:23;;;;;;;189.50;79.20;;;;;;;-4.00;90.71;98233.67;435025;1254;99227;-40
2023/01/20 07:08:30;;;;;;;186.30;83.30;;;;;;;-3.99;90.63;98230.49;435052;1257;110527;-40
2023/01/20 07:18:37;;;;;;;190.30;87.40;;;;;;;-3.86;90.52;98256.42;435020;1266;98206;-40
2023/01/20 07:28:45;;;;;;;151.70;74.70;;;;;;;-3.64;90.77;98260.30;434990;1259;111745;-39
2023/01/20 07:38:53;;;;;;;178.00;80.60;;;;;;;-3.50;90.58;98283.60;435090;1253;109338;-41
2023/01/20 07:49:01;;;;;;;181.60;78.50;;;;;;;-3.53;90.47;98302.50;435291;1254;99368;-39
2023/01/20 07:59:10;;;;;;;179.20;74.70;;;;;;;-3.32;90.85;98300.75;435153;1256;111863;-39
2023/01/20 08:09:16;;;;;;;221.40;90.30;;;;;;;-2.76;91.38;98304.34;435109;1254;107767;-38
2023/01/20 08:19:23;;;;;;;213.70;93.90;;;;;;;-1.46;92.01;98305.76;435134;1254;99097;-41
2023/01/20 08:29:32;;;;;;;154.50;78.40;;;;;;;-0.44;91.29;98311.63;435051;1267;109026;-40
2023/01/20 08:39:39;;;;;;;174.40;82.20;;;;;;;-0.18;90.12;98321.77;435239;1254;98028;-39
2023/01/20 08:49:47;;;;;;;292.70;125.60;;;;;;;-0.00;90.57;98317.66;435114;1257;110850;-40
2023/01/20 08:59:54;;;;;;;176.10;77.90;;;;;;;-0.07;90.42;98325.91;435090;1255;108232;-40
2023/01/20 09:10:01;;;;;;;128.10;58.20;;;;;;;-0.57;90.34;98336.56;435163;1257;99247;-40
2023/01/20 09:20:10;;;;;;;115.30;53.70;;;;;;;-0.82;90.56;98348.98;435167;1257;111960;-40
2023/01/20 09:30:17;;;;;;;91.90;48.70;;;;;;;-0.67;90.75;98361.91;435119;1255;108865;-40
2023/01/20 10:01:09;;;;;;;105.60;53.10;;;;;;;-0.20;91.03;98358.88;435221;1254;99237;-40
2023/01/20 10:11:20;;;;;;;94.70;47.70;;;;;;;-0.19;90.96;98355.30;435222;1254;112863;-39
2023/01/20 10:21:27;;;;;;;59.40;35.20;;;;;;;-0.12;90.93;98346.86;435100;1253;107965;-39
2023/01/20 10:31:38;;;;;;;72.30;34.20;;;;;;;0.05;90.92;98344.12;435144;1254;98027;-39
2023/01/20 10:41:50;;;;;;;65.80;30.70;;;;;;;0.34;90.93;98339.36;435286;1254;111668;-39
2023/01/20 10:51:58;;;;;;;79.20;35.90;;;;;;;0.34;91.00;98347.12;434479;1254;107291;-39
2023/01/20 11:02:17;;;;;;;56.20;29.00;;;;;;;0.32;90.80;98343.02;434507;1257;99222;-40
2023/01/20 11:12:28;;;;;;;39.30;22.30;;;;;;;0.12;90.34;98347.73;434463;1256;110801;-40
2023/01/20 11:22:38;;;;;;;41.90;22.90;;;;;;;0.18;90.43;98359.16;434408;1258;106948;-39
2023/01/20 11:32:45;;;;;;;51.00;26.10;;;;;;;0.25;90.54;98364.08;434432;1257;99787;-40
2023/01/20 11:42:54;;;;;;;44.50;23.60;;;;;;;0.21;90.48;98360.30;434559;1256;111197;-40
2023/01/20 11:53:11;;;;;;;46.20;21.50;;;;;;;0.33;90.28;98346.25;434413;1257;107283;-39
2023/01/20 12:03:33;;;;;;;30.50;17.90;;;;;;;0.35;90.00;98319.65;434511;1257;98290;-40
2023/01/20 12:24:10;;;;;;;36.50;20.30;;;;;;;0.37;90.28;98313.81;434324;1253;108541;-41
2023/01/20 12:34:17;;;;;;;31.30;15.00;;;;;;;0.36;89.73;98306.23;434375;1254;98424;-40
2023/01/20 12:44:23;;;;;;;39.90;15.60;;;;;;;0.42;89.68;98302.92;434471;1253;112471;-40
2023/01/20 12:54:51;;;;;;;33.20;15.00;;;;;;;0.47;89.71;98313.26;434350;1257;106720;-41
2023/01/20 13:05:18;;;;;;;34.80;17.40;;;;;;;0.27;89.34;98337.02;434479;1256;99231;-40
2023/01/20 13:15:30;;;;;;;30.20;17.50;;;;;;;0.19;89.47;98354.54;434538;1257;111079;-40
2023/01/20 13:25:39;;;;;;;24.70;14.90;;;;;;;0.11;89.07;98351.73;434469;1253;107121;-40
2023/01/20 13:35:49;;;;;;;;;;;;;;;0.07;89.08;98356.39;434503;1257;99216;-40
2023/01/20 13:46:20;;;;;;;30.30;17.00;;;;;;;0.03;88.82;98370.88;434371;1257;110979;-40
2023/01/20 13:56:29;;;;;;;37.10;16.90;;;;;;;-0.07;89.05;98389.38;434446;1257;107220;-40
2023/01/20 14:06:44;;;;;;;44.20;21.70;;;;;;;-0.13;89.15;98400.45;434508;1252;99243;-41
2023/01/20 14:16:52;;;;;;;34.60;17.30;;;;;;;-0.14;89.11;98399.78;434463;1257;108588;-41
2023/01/20 14:27:17;;;;;;;24.90;15.00;;;;;;;-0.09;88.93;98400.38;434270;1253;99250;-41
2023/01/20 14:37:24;;;;;;;38.60;19.70;;;;;;;-0.01;88.92;98409.98;434444;1253;111146;-41
2023/01/20 14:47:34;;;;;;;44.50;19.40;;;;;;;-0.11;89.11;98420.89;434554;1252;107856;-41
2023/01/20 14:57:43;;;;;;;39.90;20.00;;;;;;;-0.22;89.11;98430.56;434223;1257;373935;-40
2023/01/20 15:08:03;;;;;;;51.00;23.40;;;;;;;-0.31;89.10;98435.93;434495;1253;111519;-40
2023/01/20 15:18:26;;;;;;;44.20;21.00;;;;;;;-0.32;88.95;98449.38;434463;1253;107691;-41
2023/01/20 15:28:36;;;;;;;40.30;20.30;;;;;;;-0.24;89.10;98455.58;434420;1257;98019;-40
2023/01/20 15:38:44;;;;;;;35.50;18.60;;;;;;;-0.16;89.08;98457.35;434298;1259;107974;-40
2023/01/20 15:48:51;;;;;;;54.00;24.00;;;;;;;-0.20;89.32;98458.86;434523;1252;99227;-40
2023/01/20 15:58:59;;;;;;;51.70;24.80;;;;;;;-0.30;89.22;98470.22;434359;1253;111122;-40
2023/01/20 16:09:12;;;;;;;43.50;23.30;;;;;;;-0.30;89.07;98456.02;434374;1253;108626;-40
2023/01/20 16:19:19;;;;;;;57.60;26.20;;;;;;;-0.27;89.20;98450.77;434471;1253;99317;-39
2023/01/20 16:29:26;;;;;;;74.30;31.40;;;;;;;-0.29;89.32;98462.00;434346;1253;110744;-40
2023/01/20 16:39:33;;;;;;;53.30;24.20;;;;;;;-0.35;89.39;98473.58;434409;1253;107869;-40
2023/01/20 16:49:41;;;;;;;56.20;24.40;;;;;;;-0.31;89.44;98480.81;434451;1257;98853;-38
2023/01/20 16:59:47;;;;;;;61.50;28.90;;;;;;;-0.28;89.44;98482.88;434285;1257;107862;-40
2023/01/20 17:09:56;;;;;;;71.40;32.80;;;;;;;-0.29;89.61;98491.33;434379;1253;99230;-40
2023/01/20 17:20:05;;;;;;;70.60;32.80;;;;;;;-0.29;89.59;98499.99;434506;1253;110452;-40
2023/01/20 17:30:12;;;;;;;69.30;32.00;;;;;;;-0.33;89.80;98495.34;434463;1257;107758;-40
2023/01/20 17:40:19;;;;;;;94.10;40.00;;;;;;;-0.36;90.01;98493.42;434546;1253;98853;-40
2023/01/20 17:50:28;;;;;;;115.40;44.10;;;;;;;-0.45;90.02;98497.01;434426;1257;108559;-40
2023/01/20 18:00:35;;;;;;;75.30;33.50;;;;;;;-0.50;90.04;98509.01;434421;1253;98844;-41
2023/01/20 18:10:43;;;;;;;63.10;28.20;;;;;;;-0.51;90.18;98514.42;434473;1257;110842;-39
2023/01/20 18:20:50;;;;;;;93.10;36.80;;;;;;;-0.50;90.37;98510.40;434445;1253;108409;-40
2023/01/20 18:30:59;;;;;;;67.60;29.60;;;;;;;-0.53;90.46;98506.14;434557;1258;99126;-39
2023/01/20 18:41:07;;;;;;;64.50;30.00;;;;;;;-0.54;90.80;98510.66;434711;1253;107494;-39
2023/01/20 18:51:16;;;;;;;67.40;27.30;;;;;;;-0.55;90.95;98501.22;434572;1253;99201;-39
2023/01/20 19:01:26;;;;;;;61.20;27.10;;;;;;;-0.54;91.03;98496.95;434699;1257;111164;-40
2023/01/20 19:11:37;;;;;;;60.70;29.30;;;;;;;-0.53;91.10;98491.23;434746;1258;107335;-41
2023/01/20 19:21:42;;;;;;;;;;;;;;;-0.54;91.27;98487.64;434678;1256;98837;-40
2023/01/20 19:31:50;;;;;;;77.00;30.10;;;;;;;-0.60;91.51;98479.17;434728;1258;107390;-40
2023/01/20 19:41:59;;;;;;;70.40;32.50;;;;;;;-0.66;91.53;98468.56;434851;1253;98558;-41
2023/01/20 19:52:05;;;;;;;72.90;28.60;;;;;;;-0.72;91.75;98465.89;434876;1257;110458;-39
2023/01/20 20:02:12;;;;;;;76.00;31.20;;;;;;;-0.78;92.03;98475.43;434742;1253;108819;-40
2023/01/20 20:12:20;;;;;;;74.50;30.90;;;;;;;-0.83;92.24;98467.25;434689;1257;99336;-41
2023/01/20 20:22:27;;;;;;;70.10;33.50;;;;;;;-0.83;92.34;98459.42;434763;1267;108735;-39
2023/01/20 20:32:34;;;;;;;64.90;27.90;;;;;;;-0.81;92.49;98459.23;434816;1253;99234;-40
2023/01/20 20:42:41;;;;;;;71.80;27.80;;;;;;;-0.79;92.71;98471.41;434827;1257;112854;-39
2023/01/20 20:52:49;;;;;;;62.90;26.20;;;;;;;-0.80;92.75;98470.27;434829;1253;107501;-39
2023/01/20 21:02:56;;;;;;;62.10;26.70;;;;;;;-0.80;92.85;98455.67;434772;1258;99227;-39
2023/01/20 21:13:07;;;;;;;67.70;29.00;;;;;;;-0.82;93.30;98439.70;434858;1253;107991;-40
2023/01/20 21:23:14;;;;;;;67.50;27.40;;;;;;;-0.85;93.33;98433.41;434986;1253;98847;-41
2023/01/20 21:33:21;;;;;;;72.50;30.20;;;;;;;-0.86;93.50;98435.79;434898;1259;111814;-38
2023/01/20 21:53:51;;;;;;;67.20;27.90;;;;;;;-0.84;93.87;98431.27;434989;1253;99228;-40
2023/01/20 22:03:58;;;;;;;54.00;25.50;;;;;;;-0.81;93.87;98401.70;434962;1259;106014;-38
2023/01/20 22:14:06;;;;;;;58.20;29.30;;;;;;;-0.77;93.80;98385.84;434982;1253;99228;-39
2023/01/20 22:24:13;;;;;;;44.10;22.20;;;;;;;-0.76;94.09;98372.33;434796;1257;110634;-40
2023/01/20 22:34:21;;;;;;;46.10;22.80;;;;;;;-0.72;94.13;98373.98;434937;1253;108195;-40
2023/01/20 22:44:28;;;;;;;34.30;18.00;;;;;;;-0.67;94.18;98373.08;434884;1257;99236;-39
2023/01/20 22:54:35;;;;;;;28.90;17.70;;;;;;;-0.64;94.17;98368.76;434882;1259;108435;-39
2023/01/20 23:04:42;;;;;;;23.70;11.00;;;;;;;-0.57;94.59;98372.08;434892;1259;98958;-40
2023/01/20 23:15:01;;;;;;;20.20;11.00;;;;;;;-0.54;94.88;98369.54;434991;1259;110638;-40
2023/01/20 23:35:14;;;;;;;15.10;9.10;;;;;;;-0.53;95.05;98368.20;434964;1256;99038;-39
2023/01/20 23:45:21;;;;;;;15.80;10.80;;;;;;;-0.51;95.17;98373.49;434762;1259;107237;-39
2023/01/20 23:55:29;;;;;;;20.10;10.20;;;;;;;-0.50;95.34;98377.42;434932;1253;97989;-40
